< < Back
Terminal Aerodrome Forecast


Current Version              Previous Versions:   1  2  3  4  5  6  7  8  9  

Terminal Aerodrome Forecast

607
FTUS42 KGSP 252128 AAA
TAFAVL
TAF AMD
KAVL 252128Z 2521/2618 34006KT P6SM VCSH SCT035 BKN070
     FM260900 VRB03KT 1 1/2SM BR FEW003 SCT030
     FM261100 VRB03KT 1/2SM FG BKN003
     FM261300 34006KT P6SM FEW030
     FM261600 36006KT P6SM SCT030=



Latest METAR

048
SAUS70 KWBC 260600 RRE
MTRAVL
METAR KAVL 260554Z AUTO 00000KT 10SM R35/3500VP6000FT CLR 21/19 A3021
RMK AO2 SLP199 60000 T02110194 10261 20211 50002


USA.gov is the U.S. government's official web portal to all federal, state and local government web resources and services.